Time;durP1;ratioP1;P1;durP2;ratioP2;P2;SDS_P1;SDS_P2;PMS_P1;PMS_P2;Temp;Humidity;BMP_temperature;BMP_pressure;BME280_temperature;BME280_humidity;BME280_pressure;Samples;Min_cycle;Max_cycle;Signal;HPM_P1;HPM_P2
2024/02/12 00:04:14;;;;;;;18.55;15.73;;;;;;;5.16;100.00;99446.41;10103263;28;20505;-74
2024/02/12 00:09:12;;;;;;;21.60;15.85;;;;;;;5.06;100.00;99457.53;10106457;28;20043;-74
2024/02/12 00:14:09;;;;;;;20.63;16.92;;;;;;;5.14;100.00;99461.38;10105486;28;20051;-74
2024/02/12 00:19:08;;;;;;;20.02;15.93;;;;;;;5.16;100.00;99457.25;10101354;28;20046;-74
2024/02/12 00:24:06;;;;;;;21.20;17.15;;;;;;;5.16;100.00;99454.53;10099644;28;20050;-74
2024/02/12 00:29:03;;;;;;;21.20;16.85;;;;;;;5.17;100.00;99458.81;10099274;28;20047;-73
2024/02/12 00:34:01;;;;;;;23.10;16.75;;;;;;;5.19;100.00;99456.59;10101639;28;20043;-73
2024/02/12 00:38:57;;;;;;;20.90;17.75;;;;;;;5.17;100.00;99464.25;10095739;28;20046;-73
2024/02/12 00:43:54;;;;;;;24.30;16.80;;;;;;;5.22;100.00;99461.41;10103968;28;20047;-73
2024/02/12 00:48:51;;;;;;;20.13;17.65;;;;;;;5.17;100.00;99464.25;10106864;28;20388;-73
2024/02/12 00:53:47;;;;;;;19.63;16.50;;;;;;;5.20;100.00;99458.22;10100649;28;20039;-73
2024/02/12 00:58:45;;;;;;;19.92;17.27;;;;;;;5.12;100.00;99472.53;10095671;28;21508;-73
2024/02/12 01:03:41;;;;;;;22.92;17.33;;;;;;;5.18;100.00;99471.28;10099295;28;20047;-72
2024/02/12 01:08:39;;;;;;;21.00;17.13;;;;;;;5.26;100.00;99467.78;10102875;28;20069;-75
2024/02/12 01:13:38;;;;;;;19.75;17.02;;;;;;;5.30;100.00;99478.81;10103241;28;20546;-73
2024/02/12 01:18:35;;;;;;;20.65;16.45;;;;;;;5.28;100.00;99486.47;10100473;28;20079;-73
2024/02/12 01:23:32;;;;;;;22.15;16.02;;;;;;;5.22;100.00;99487.69;10100926;28;20039;-74
2024/02/12 01:28:31;;;;;;;19.73;17.50;;;;;;;5.27;100.00;99491.09;10094092;28;20054;-74
2024/02/12 01:33:29;;;;;;;19.27;16.50;;;;;;;5.24;100.00;99494.44;10098686;28;20506;-74
2024/02/12 01:38:26;;;;;;;19.30;17.15;;;;;;;5.26;100.00;99494.91;10099553;28;20054;-73
2024/02/12 01:43:30;;;;;;;22.73;16.42;;;;;;;5.18;100.00;99492.97;10103856;28;20486;-72
2024/02/12 01:48:29;;;;;;;18.77;15.80;;;;;;;5.25;100.00;99492.53;10107483;28;20057;-72
2024/02/12 01:53:26;;;;;;;21.92;17.45;;;;;;;5.20;100.00;99495.38;10105054;28;20078;-73
2024/02/12 01:58:23;;;;;;;19.98;16.50;;;;;;;5.32;100.00;99492.88;10107458;28;20075;-74
2024/02/12 02:03:21;;;;;;;22.42;16.55;;;;;;;5.30;100.00;99495.09;10105540;28;20054;-73
2024/02/12 02:08:19;;;;;;;24.58;17.52;;;;;;;5.31;100.00;99490.44;10099653;28;20715;-73
2024/02/12 02:13:16;;;;;;;22.00;17.02;;;;;;;5.38;100.00;99486.16;10095132;28;20038;-73
2024/02/12 02:18:12;;;;;;;23.65;16.55;;;;;;;5.31;100.00;99495.88;10096154;28;20626;-73
2024/02/12 02:23:09;;;;;;;24.45;16.50;;;;;;;5.32;100.00;99492.06;10106311;28;20054;-74
2024/02/12 02:28:06;;;;;;;30.65;17.88;;;;;;;5.32;100.00;99486.66;10110861;28;20441;-73
2024/02/12 02:33:03;;;;;;;23.25;17.13;;;;;;;5.40;100.00;99483.16;10104487;28;20043;-74
2024/02/12 02:38:01;;;;;;;26.33;16.95;;;;;;;5.40;100.00;99491.28;10098778;28;20047;-74
2024/02/12 02:43:00;;;;;;;27.70;17.05;;;;;;;5.43;100.00;99487.94;10100475;28;20054;-72
2024/02/12 02:47:57;;;;;;;27.35;17.23;;;;;;;5.38;100.00;99488.09;10102377;28;20117;-74
2024/02/12 02:52:53;;;;;;;26.15;16.90;;;;;;;5.35;100.00;99480.59;10114346;28;20145;-74
2024/02/12 02:57:51;;;;;;;24.45;17.10;;;;;;;5.38;100.00;99482.66;10110012;28;20078;-74
2024/02/12 03:02:50;;;;;;;25.27;16.75;;;;;;;5.46;100.00;99480.00;10112064;28;20043;-75
2024/02/12 03:07:47;;;;;;;27.60;17.17;;;;;;;5.34;100.00;99484.41;10110427;28;20442;-73
2024/02/12 03:12:45;;;;;;;28.17;17.05;;;;;;;5.39;100.00;99476.16;10107634;28;20616;-75
2024/02/12 03:17:43;;;;;;;24.88;17.15;;;;;;;5.56;100.00;99480.81;10117152;28;20055;-74
2024/02/12 03:22:41;;;;;;;23.13;16.92;;;;;;;5.53;100.00;99487.69;10108325;28;20046;-71
2024/02/12 03:27:38;;;;;;;28.42;16.67;;;;;;;5.65;100.00;99496.00;10109901;28;20521;-70
2024/02/12 03:32:36;;;;;;;26.35;17.52;;;;;;;5.65;100.00;99490.56;10097487;28;20047;-73
2024/02/12 03:37:32;;;;;;;26.73;16.90;;;;;;;5.58;100.00;99495.66;10100899;28;20074;-72
2024/02/12 03:42:29;;;;;;;22.02;15.20;;;;;;;5.66;100.00;99500.34;10097866;28;20109;-70
2024/02/12 03:47:37;;;;;;;24.50;16.80;;;;;;;5.73;100.00;99496.34;10115128;28;20055;-70
2024/02/12 04:03:08;;;;;;;23.77;16.08;;;;;;;5.64;100.00;99499.84;10105705;28;20047;-74
2024/02/12 04:08:04;;;;;;;25.98;15.07;;;;;;;5.67;100.00;99501.91;10104076;28;20074;-73
2024/02/12 04:13:03;;;;;;;22.83;14.60;;;;;;;5.58;100.00;99511.94;10111552;28;20042;-71
2024/02/12 04:18:00;;;;;;;21.27;14.65;;;;;;;5.58;100.00;99517.34;10097530;28;20093;-71
2024/02/12 04:22:56;;;;;;;22.92;15.20;;;;;;;5.57;100.00;99510.34;10093983;28;20516;-71
2024/02/12 04:27:54;;;;;;;25.73;14.80;;;;;;;5.56;100.00;99511.44;10101840;28;20125;-71
2024/02/12 04:32:51;;;;;;;25.88;15.63;;;;;;;5.57;100.00;99515.78;10103500;28;20450;-70
2024/02/12 04:37:48;;;;;;;26.52;14.13;;;;;;;5.60;100.00;99515.13;10095949;28;20047;-71
2024/02/12 04:42:44;;;;;;;31.75;15.70;;;;;;;5.70;100.00;99520.25;10099052;28;20051;-70
2024/02/12 04:47:41;;;;;;;27.05;14.48;;;;;;;5.74;100.00;99519.66;10104877;28;20050;-70
2024/02/12 04:52:38;;;;;;;27.67;14.98;;;;;;;5.67;100.00;99511.97;10103753;28;20047;-70
2024/02/12 04:57:34;;;;;;;33.80;16.80;;;;;;;5.72;100.00;99521.88;10101486;28;20047;-71
2024/02/12 05:02:33;;;;;;;34.13;17.25;;;;;;;5.76;100.00;99528.28;10103043;28;20047;-71
2024/02/12 05:07:31;;;;;;;30.80;15.60;;;;;;;5.81;100.00;99525.41;10100404;28;20182;-71
2024/02/12 05:12:29;;;;;;;35.33;17.38;;;;;;;5.91;100.00;99528.63;10095842;28;20050;-73
2024/02/12 05:17:41;;;;;;;36.97;16.98;;;;;;;5.96;100.00;99530.41;10086244;28;20047;-72
2024/02/12 05:22:39;;;;;;;;;;;;;;;5.99;100.00;99527.09;10100622;28;20458;-73
2024/02/12 05:27:36;;;;;;;37.67;19.27;;;;;;;6.08;100.00;99530.63;10095613;28;20374;-71
2024/02/12 05:32:32;;;;;;;33.25;18.30;;;;;;;6.19;100.00;99524.88;10094908;28;20145;-71
2024/02/12 05:37:29;;;;;;;42.28;20.65;;;;;;;6.17;100.00;99532.53;10099153;28;20192;-70
2024/02/12 05:42:26;;;;;;;48.20;23.13;;;;;;;6.24;100.00;99535.56;10097359;28;20173;-71
2024/02/12 05:47:22;;;;;;;46.63;23.40;;;;;;;6.22;100.00;99540.50;10095452;28;20106;-71
2024/02/12 05:52:20;;;;;;;42.40;22.48;;;;;;;6.21;100.00;99544.34;10099859;28;20130;-70
2024/02/12 05:57:17;;;;;;;44.20;22.20;;;;;;;6.26;100.00;99541.47;10102881;28;20054;-71
2024/02/12 06:02:13;;;;;;;51.40;25.48;;;;;;;6.28;100.00;99560.97;10100641;28;20539;-71
2024/02/12 06:07:10;;;;;;;57.55;25.60;;;;;;;6.24;100.00;99570.84;10106636;28;20056;-71
2024/02/12 06:12:09;;;;;;;56.67;25.63;;;;;;;6.27;100.00;99591.97;10103235;28;20057;-77
2024/02/12 06:17:05;;;;;;;57.15;26.27;;;;;;;6.19;100.00;99598.94;10089780;28;20047;-71
2024/02/12 06:22:02;;;;;;;58.78;25.58;;;;;;;6.18;100.00;99599.28;10103250;28;20101;-71
2024/02/12 06:26:58;;;;;;;51.78;25.67;;;;;;;6.11;100.00;99597.81;10087511;28;20051;-71
2024/02/12 06:31:55;;;;;;;57.40;26.40;;;;;;;6.15;100.00;99611.56;10100583;28;20447;-71
2024/02/12 06:36:52;;;;;;;51.17;25.55;;;;;;;6.19;100.00;99612.53;10097538;28;20097;-71
2024/02/12 06:41:49;;;;;;;58.70;25.90;;;;;;;6.18;100.00;99627.22;10099706;28;20129;-71
2024/02/12 06:46:46;;;;;;;50.28;26.92;;;;;;;6.20;100.00;99640.50;10105285;28;20039;-71
2024/02/12 06:51:44;;;;;;;57.25;25.45;;;;;;;6.29;100.00;99644.03;10104000;28;20042;-71
2024/02/12 06:56:41;;;;;;;53.80;24.42;;;;;;;6.22;100.00;99665.38;10093535;28;20495;-72
2024/02/12 07:01:38;;;;;;;55.95;25.52;;;;;;;6.18;100.00;99680.72;10110677;28;20515;-74
2024/02/12 07:06:34;;;;;;;51.05;25.67;;;;;;;6.25;100.00;99683.78;10103633;28;20185;-72
2024/02/12 07:11:31;;;;;;;52.03;26.35;;;;;;;6.21;100.00;99690.94;10101412;28;20106;-70
2024/02/12 07:16:30;;;;;;;50.60;23.95;;;;;;;6.20;100.00;99706.44;10107157;28;20050;-72
2024/02/12 07:21:27;;;;;;;57.78;25.27;;;;;;;6.20;100.00;99711.06;10104909;28;20044;-72
2024/02/12 07:26:23;;;;;;;49.67;23.83;;;;;;;6.27;100.00;99711.41;10104403;28;20054;-72
2024/02/12 07:31:20;;;;;;;46.55;23.52;;;;;;;6.27;100.00;99722.25;10104519;28;20097;-71
2024/02/12 07:36:16;;;;;;;48.47;24.25;;;;;;;6.28;100.00;99740.94;10111470;28;20744;-72
2024/02/12 07:41:13;;;;;;;50.22;22.70;;;;;;;6.25;100.00;99740.78;10107386;28;20055;-71
2024/02/12 07:46:11;;;;;;;44.75;21.83;;;;;;;6.35;100.00;99756.78;10107041;28;20054;-71
2024/02/12 07:51:11;;;;;;;33.78;20.42;;;;;;;6.27;100.00;99765.69;10121342;28;20054;-72
2024/02/12 07:56:08;;;;;;;31.88;19.63;;;;;;;6.31;100.00;99777.50;10069708;28;1056203;-71
2024/02/12 08:01:04;;;;;;;33.63;17.48;;;;;;;6.35;100.00;99789.34;10119414;28;20533;-72
2024/02/12 08:06:01;;;;;;;32.75;17.77;;;;;;;6.40;100.00;99807.44;10106281;28;20179;-71
2024/02/12 08:10:57;;;;;;;31.67;18.52;;;;;;;6.56;100.00;99818.69;10111647;28;20042;-71
2024/02/12 08:15:54;;;;;;;31.45;18.95;;;;;;;6.59;100.00;99831.63;10102524;28;20047;-71
2024/02/12 08:20:50;;;;;;;31.85;17.45;;;;;;;6.45;100.00;99832.56;10118522;28;20043;-72
2024/02/12 08:25:47;;;;;;;29.13;17.77;;;;;;;6.45;100.00;99837.97;10114572;28;20514;-70
2024/02/12 08:30:44;;;;;;;31.15;17.17;;;;;;;6.68;100.00;99851.50;10109808;28;20039;-72
2024/02/12 08:35:40;;;;;;;30.95;17.98;;;;;;;6.74;100.00;99866.56;10104106;28;20447;-71
2024/02/12 08:40:37;;;;;;;27.05;16.85;;;;;;;6.80;100.00;99875.34;10102052;28;20043;-72
2024/02/12 08:45:35;;;;;;;27.63;16.50;;;;;;;6.74;100.00;99888.28;10101344;28;20046;-70
2024/02/12 08:50:33;;;;;;;31.23;18.23;;;;;;;6.72;100.00;99901.38;10106098;28;20043;-70
2024/02/12 08:55:31;;;;;;;31.10;19.60;;;;;;;6.70;100.00;99909.03;10116254;28;20049;-71
2024/02/12 09:00:27;;;;;;;29.23;17.40;;;;;;;6.73;100.00;99913.88;10107467;28;20047;-73
2024/02/12 09:05:24;;;;;;;31.90;18.25;;;;;;;6.79;100.00;99918.03;10108174;28;20488;-71
2024/02/12 09:10:21;;;;;;;36.10;19.52;;;;;;;6.85;100.00;99938.53;10110914;28;22701;-74
2024/02/12 09:15:19;;;;;;;31.55;18.48;;;;;;;7.00;100.00;99939.25;10101261;28;20559;-73
2024/02/12 09:20:16;;;;;;;33.65;19.15;;;;;;;7.04;100.00;99956.53;10115275;28;20133;-74
2024/02/12 09:25:13;;;;;;;33.97;18.35;;;;;;;7.01;100.00;99970.72;10104849;28;20109;-73
2024/02/12 09:30:11;;;;;;;32.00;19.02;;;;;;;7.05;100.00;99974.44;10110597;28;20054;-73
2024/02/12 09:35:08;;;;;;;34.08;16.90;;;;;;;7.14;100.00;99983.44;10103902;28;20495;-72
2024/02/12 09:40:07;;;;;;;30.48;18.67;;;;;;;7.19;100.00;100002.31;10095662;28;20118;-72
2024/02/12 09:45:07;;;;;;;28.45;17.50;;;;;;;7.22;100.00;100000.91;10106098;28;20057;-71
2024/02/12 09:50:07;;;;;;;31.58;19.15;;;;;;;7.22;100.00;100012.59;10104044;28;20546;-71
2024/02/12 09:55:09;;;;;;;28.40;18.65;;;;;;;7.14;100.00;100025.00;10092277;28;20047;-71
2024/02/12 10:00:07;;;;;;;26.77;17.23;;;;;;;7.22;100.00;100023.47;10117766;28;20105;-72
2024/02/12 10:05:10;;;;;;;29.50;18.42;;;;;;;-146.18;100.00;67994.34;10107307;28;20049;-73
2024/02/12 10:10:08;;;;;;;26.60;17.63;;;;;;;-146.18;100.00;67994.34;10113675;28;20098;-72
2024/02/12 10:15:05;;;;;;;31.88;18.15;;;;;;;-146.18;100.00;67994.34;10105263;28;20101;-73
2024/02/12 10:20:09;;;;;;;27.30;18.00;;;;;;;-146.18;100.00;67994.34;10108985;28;20046;-74
2024/02/12 10:25:07;;;;;;;26.27;16.95;;;;;;;-146.18;100.00;67994.34;10098687;28;20503;-71
2024/02/12 10:30:08;;;;;;;25.75;16.85;;;;;;;-146.18;100.00;67994.34;10102252;28;20043;-71
2024/02/12 10:35:14;;;;;;;25.58;16.23;;;;;;;-146.18;100.00;67994.34;10107457;28;20491;-72
2024/02/12 10:40:16;;;;;;;23.85;17.60;;;;;;;-146.18;100.00;67994.34;10102563;28;20055;-73
2024/02/12 10:45:13;;;;;;;24.45;17.60;;;;;;;-146.18;100.00;67994.34;10104688;28;20503;-72
2024/02/12 10:50:13;;;;;;;27.90;18.10;;;;;;;-146.18;100.00;67994.34;10103477;28;20495;-71
2024/02/12 10:55:10;;;;;;;26.20;17.42;;;;;;;-146.18;100.00;67994.34;10101044;28;20047;-72
2024/02/12 11:00:07;;;;;;;27.80;18.08;;;;;;;-146.18;100.00;67994.34;10114332;28;20051;-71
2024/02/12 11:05:06;;;;;;;27.85;19.02;;;;;;;-146.18;100.00;67994.34;10109925;28;20050;-72
2024/02/12 11:10:05;;;;;;;30.65;19.73;;;;;;;-146.18;100.00;67994.34;10116836;28;20055;-73
2024/02/12 11:15:10;;;;;;;30.75;18.92;;;;;;;-146.18;100.00;67994.34;10114423;28;20047;-72
2024/02/12 11:20:17;;;;;;;28.67;20.20;;;;;;;-146.18;100.00;67994.34;10113736;28;20054;-73
2024/02/12 11:25:23;;;;;;;30.58;19.52;;;;;;;-146.18;100.00;67994.34;10106775;28;20562;-71
2024/02/12 11:30:21;;;;;;;33.30;21.95;;;;;;;-146.18;100.00;67994.34;10107778;28;20059;-72
2024/02/12 11:35:18;;;;;;;32.58;21.27;;;;;;;-146.18;100.00;67994.34;10105536;28;20101;-72
2024/02/12 11:40:18;;;;;;;35.08;21.70;;;;;;;-146.18;100.00;67994.34;10116091;28;20058;-72
2024/02/12 11:45:17;;;;;;;32.03;22.90;;;;;;;-146.18;100.00;67994.34;10101200;28;20498;-72
2024/02/12 11:50:24;;;;;;;35.72;22.85;;;;;;;-146.18;100.00;67994.34;10102240;28;20055;-71
2024/02/12 11:55:21;;;;;;;32.85;21.50;;;;;;;-146.18;100.00;67994.34;10114970;28;20105;-72
2024/02/12 12:00:21;;;;;;;34.15;23.60;;;;;;;-146.18;100.00;67994.34;10118496;28;20046;-72
2024/02/12 12:05:27;;;;;;;41.88;25.38;;;;;;;-146.18;100.00;67994.34;10109101;28;20427;-73
2024/02/12 12:10:26;;;;;;;31.05;21.88;;;;;;;-146.18;100.00;67994.34;10104600;28;20182;-71
2024/02/12 12:15:23;;;;;;;38.28;22.98;;;;;;;-146.18;100.00;67994.34;10104381;28;20051;-71
2024/02/12 12:20:20;;;;;;;41.95;24.45;;;;;;;-146.18;100.00;67994.34;10102554;28;20503;-70
2024/02/12 12:25:20;;;;;;;38.70;24.25;;;;;;;-146.18;100.00;67994.34;10110047;28;20400;-71
2024/02/12 12:30:18;;;;;;;35.83;24.13;;;;;;;-146.18;100.00;67994.34;10106701;28;20466;-71
2024/02/12 12:35:16;;;;;;;42.55;24.38;;;;;;;-146.18;100.00;67994.34;10118772;28;20431;-72
2024/02/12 12:40:19;;;;;;;34.60;24.48;;;;;;;-146.18;100.00;67994.34;10117228;28;20057;-71
2024/02/12 12:45:17;;;;;;;46.08;26.27;;;;;;;-146.18;100.00;67994.34;10099258;28;20118;-71
2024/02/12 12:50:14;;;;;;;44.13;25.90;;;;;;;-146.18;100.00;67994.34;10110517;28;20050;-70
2024/02/12 12:55:13;;;;;;;43.30;26.08;;;;;;;-146.18;100.00;67994.34;10100415;28;20058;-71
2024/02/12 13:00:21;;;;;;;33.53;23.52;;;;;;;-146.18;100.00;67994.34;10106415;28;20087;-71
2024/02/12 13:05:18;;;;;;;42.75;26.63;;;;;;;-146.18;100.00;67994.34;10111369;28;20129;-73
2024/02/12 13:10:15;;;;;;;38.92;25.30;;;;;;;-146.18;100.00;67994.34;10099967;28;20495;-74
2024/02/12 13:15:13;;;;;;;34.92;24.52;;;;;;;-146.18;100.00;67994.34;10094630;28;20054;-73
2024/02/12 13:20:24;;;;;;;37.50;22.70;;;;;;;-146.18;100.00;67994.34;10108316;28;20725;-72
2024/02/12 13:25:28;;;;;;;32.22;20.80;;;;;;;-146.18;100.00;67994.34;10108395;28;20130;-73
2024/02/12 13:30:25;;;;;;;36.30;21.05;;;;;;;-146.18;100.00;67994.34;10111666;28;20470;-73
2024/02/12 13:35:22;;;;;;;33.40;22.83;;;;;;;-146.18;100.00;67994.34;10104896;28;20058;-72
2024/02/12 13:40:19;;;;;;;35.80;21.42;;;;;;;-146.18;100.00;67994.34;10112899;28;20061;-74
2024/02/12 13:45:16;;;;;;;33.08;21.25;;;;;;;-146.18;100.00;67994.34;10108427;28;20047;-70
2024/02/12 13:50:14;;;;;;;28.08;18.63;;;;;;;-146.18;100.00;67994.34;10097274;28;20102;-73
2024/02/12 13:55:10;;;;;;;27.23;18.40;;;;;;;-146.18;100.00;67994.34;10107117;28;20051;-74
2024/02/12 14:00:17;;;;;;;26.30;18.85;;;;;;;-146.18;100.00;67994.34;10109233;28;20576;-73
2024/02/12 14:05:35;;;;;;;26.02;16.17;;;;;;;-146.18;100.00;67994.34;10102214;28;20047;-73
2024/02/12 14:10:32;;;;;;;23.20;16.33;;;;;;;-146.18;100.00;67994.34;10098853;28;20165;-73
2024/02/12 14:15:30;;;;;;;20.25;15.88;;;;;;;-146.18;100.00;67994.34;10107471;28;20073;-73
2024/02/12 14:20:46;;;;;;;22.00;15.57;;;;;;;-146.18;100.00;67994.34;10098317;28;20577;-72
2024/02/12 14:25:47;;;;;;;26.88;15.90;;;;;;;-146.18;100.00;67994.34;10093545;28;20049;-73
2024/02/12 14:30:48;;;;;;;18.10;12.30;;;;;;;-146.18;100.00;67994.34;10097960;28;20055;-72
2024/02/12 14:35:47;;;;;;;17.67;13.13;;;;;;;-146.18;100.00;67994.34;10109839;28;20073;-71
2024/02/12 14:40:44;;;;;;;15.30;11.32;;;;;;;-146.18;100.00;67994.34;10108592;28;20054;-71
2024/02/12 14:45:41;;;;;;;13.27;11.90;;;;;;;-146.18;100.00;67994.34;10100188;28;20043;-71
2024/02/12 14:50:38;;;;;;;13.57;11.50;;;;;;;-146.18;100.00;67994.34;10106037;28;20656;-71
2024/02/12 14:55:35;;;;;;;13.50;11.93;;;;;;;-146.18;100.00;67994.34;10099197;28;20071;-71
2024/02/12 15:00:31;;;;;;;18.00;11.50;;;;;;;-146.18;100.00;67994.34;10108499;28;20106;-73
2024/02/12 15:05:28;;;;;;;14.13;9.85;;;;;;;-146.18;100.00;67994.34;10102200;28;20423;-72
2024/02/12 15:10:25;;;;;;;13.05;10.27;;;;;;;-146.18;100.00;67994.34;10106938;28;20049;-73
2024/02/12 15:15:22;;;;;;;16.98;10.88;;;;;;;-146.18;100.00;67994.34;10105066;28;20178;-73
2024/02/12 15:20:22;;;;;;;14.82;10.63;;;;;;;-146.18;100.00;67994.34;10101655;28;20042;-72
2024/02/12 15:25:19;;;;;;;11.95;10.73;;;;;;;-146.18;100.00;67994.34;10102414;28;20138;-73
2024/02/12 15:30:19;;;;;;;13.65;10.20;;;;;;;-146.18;100.00;67994.34;10090780;28;20130;-72
2024/02/12 15:35:17;;;;;;;10.48;9.48;;;;;;;-146.18;100.00;67994.34;10100197;28;20506;-72
2024/02/12 15:40:21;;;;;;;13.00;9.80;;;;;;;-146.18;100.00;67994.34;10085577;28;20055;-74
2024/02/12 15:45:19;;;;;;;16.17;9.52;;;;;;;-146.18;100.00;67994.34;10103205;28;20062;-72
2024/02/12 15:50:18;;;;;;;11.00;9.90;;;;;;;-146.18;100.00;67994.34;10088093;28;20061;-73
2024/02/12 16:00:35;;;;;;;13.15;9.38;;;;;;;6.99;100.00;100375.25;10340648;27;20512;-71
2024/02/12 16:06:10;;;;;;;14.80;10.00;;;;;;;6.88;100.00;100394.47;10296298;28;20056;-71
2024/02/12 16:11:09;;;;;;;13.63;10.60;;;;;;;6.83;100.00;100401.91;10294904;28;20052;-71
2024/02/12 16:16:08;;;;;;;15.10;11.82;;;;;;;6.73;100.00;100413.78;10281776;28;20076;-72
2024/02/12 16:21:05;;;;;;;17.35;11.13;;;;;;;6.68;100.00;100422.81;10293311;28;20045;-71
2024/02/12 16:26:04;;;;;;;14.30;12.85;;;;;;;6.60;100.00;100447.16;10290916;28;20049;-72
2024/02/12 16:31:01;;;;;;;13.35;11.98;;;;;;;6.69;100.00;100446.16;10293519;28;20076;-72
2024/02/12 16:35:57;;;;;;;14.82;12.82;;;;;;;6.64;100.00;100454.41;10281559;28;20049;-71
2024/02/12 16:40:54;;;;;;;14.90;12.90;;;;;;;6.64;100.00;100469.91;10296519;28;20053;-72
2024/02/12 16:45:51;;;;;;;16.77;13.38;;;;;;;6.69;100.00;100480.69;10280413;28;20052;-71
2024/02/12 16:50:49;;;;;;;18.52;12.18;;;;;;;6.68;100.00;100498.06;10270741;28;20133;-71
2024/02/12 16:55:46;;;;;;;15.20;12.47;;;;;;;6.66;100.00;100497.56;10279417;28;20053;-73
2024/02/12 17:00:42;;;;;;;20.48;13.23;;;;;;;6.77;100.00;100509.88;10280294;28;20049;-72
2024/02/12 17:05:39;;;;;;;17.25;13.35;;;;;;;6.70;100.00;100512.97;10289859;28;20048;-70
2024/02/12 17:10:36;;;;;;;20.35;14.13;;;;;;;6.75;100.00;100531.09;10283211;28;20622;-71
2024/02/12 17:15:36;;;;;;;17.35;13.98;;;;;;;6.73;100.00;100538.78;10283264;28;20040;-72
2024/02/12 17:20:35;;;;;;;19.48;13.35;;;;;;;6.74;100.00;100545.81;10281147;28;20041;-72
2024/02/12 17:25:31;;;;;;;21.23;13.73;;;;;;;6.70;100.00;100555.66;10271008;28;20119;-72
2024/02/12 17:30:28;;;;;;;15.75;14.05;;;;;;;6.70;100.00;100561.06;10262464;28;20508;-71
2024/02/12 17:35:26;;;;;;;18.70;13.23;;;;;;;6.70;100.00;100567.31;10262058;28;20088;-72
2024/02/12 17:40:23;;;;;;;16.17;12.68;;;;;;;6.66;100.00;100577.19;10256299;28;20524;-72
2024/02/12 17:45:19;;;;;;;20.50;14.15;;;;;;;6.62;100.00;100591.66;10259476;28;20051;-74
2024/02/12 17:50:19;;;;;;;20.17;13.50;;;;;;;6.61;100.00;100600.88;10261750;28;20056;-72
2024/02/12 17:55:16;;;;;;;16.17;13.23;;;;;;;6.66;100.00;100603.50;10256420;28;20080;-72
2024/02/12 18:00:13;;;;;;;16.20;13.93;;;;;;;6.66;100.00;100608.94;10260682;28;20045;-72
2024/02/12 18:05:12;;;;;;;18.10;13.13;;;;;;;6.62;100.00;100613.38;10263411;28;20080;-71
2024/02/12 18:10:13;;;;;;;19.45;13.00;;;;;;;6.54;100.00;100617.53;10248537;28;20052;-71
2024/02/12 18:15:12;;;;;;;22.38;14.77;;;;;;;6.64;100.00;100627.47;10266899;28;20049;-71
2024/02/12 18:20:11;;;;;;;17.35;13.40;;;;;;;6.68;100.00;100628.50;10255220;28;20049;-71
2024/02/12 18:25:11;;;;;;;17.00;13.85;;;;;;;6.62;100.00;100626.97;10257511;28;20501;-74
2024/02/12 18:30:10;;;;;;;18.80;13.93;;;;;;;6.57;100.00;100633.28;10258423;28;20148;-72
2024/02/12 18:35:08;;;;;;;21.10;14.23;;;;;;;6.64;100.00;100632.91;10258673;28;20132;-71
2024/02/12 18:40:16;;;;;;;19.83;14.10;;;;;;;6.59;100.00;100635.69;10252679;28;20108;-73
2024/02/12 18:45:15;;;;;;;20.00;13.95;;;;;;;6.52;100.00;100636.03;10245881;28;20053;-73
2024/02/12 18:50:13;;;;;;;22.88;13.23;;;;;;;6.56;100.00;100636.28;10254870;28;20626;-72
2024/02/12 18:55:11;;;;;;;16.90;13.93;;;;;;;6.51;100.00;100656.97;10237094;28;20142;-75
2024/02/12 19:00:10;;;;;;;15.07;13.63;;;;;;;6.65;100.00;100661.69;10236649;28;20133;-72
2024/02/12 19:05:07;;;;;;;22.05;13.32;;;;;;;6.42;100.00;100653.28;10244852;28;20045;-73
2024/02/12 19:10:05;;;;;;;19.50;13.23;;;;;;;6.38;100.00;100673.97;10254989;28;20045;-73
2024/02/12 19:15:03;;;;;;;18.40;13.00;;;;;;;6.51;100.00;100673.25;10263820;28;20531;-76
2024/02/12 19:19:59;;;;;;;19.60;14.27;;;;;;;6.52;100.00;100674.91;10245768;28;20076;-72
2024/02/12 19:24:56;;;;;;;15.60;13.70;;;;;;;6.50;100.00;100693.38;10252574;28;20068;-71
2024/02/12 19:29:54;;;;;;;16.13;13.50;;;;;;;6.54;100.00;100690.88;10247051;28;20099;-72
2024/02/12 19:34:53;;;;;;;15.82;13.63;;;;;;;6.58;100.00;100704.72;10254134;28;20049;-71
2024/02/12 19:39:50;;;;;;;15.27;13.75;;;;;;;6.56;100.00;100712.34;10257042;28;20163;-72
2024/02/12 19:44:47;;;;;;;14.88;13.30;;;;;;;6.57;100.00;100708.50;10237764;28;20786;-75
2024/02/12 19:49:43;;;;;;;16.05;13.45;;;;;;;6.56;100.00;100723.22;10252386;28;20048;-73
2024/02/12 19:54:40;;;;;;;19.55;13.90;;;;;;;6.66;100.00;100723.91;10268033;28;20420;-75
2024/02/12 19:59:37;;;;;;;20.08;12.75;;;;;;;6.62;100.00;100735.63;10258575;28;20582;-72
2024/02/12 20:04:34;;;;;;;20.13;13.23;;;;;;;6.60;100.00;100740.56;10269373;28;20127;-74
2024/02/12 20:09:31;;;;;;;19.30;13.25;;;;;;;6.58;100.00;100753.59;10266055;28;20203;-71
2024/02/12 20:14:27;;;;;;;15.57;12.60;;;;;;;6.47;100.00;100752.91;10254315;28;20037;-73
2024/02/12 20:19:28;;;;;;;18.05;11.77;;;;;;;6.44;100.00;100759.72;10272123;28;20087;-72
2024/02/12 20:24:25;;;;;;;11.85;10.65;;;;;;;6.43;100.00;100768.16;10261134;28;20049;-73
2024/02/12 20:29:22;;;;;;;14.27;10.85;;;;;;;6.30;100.00;100769.66;10250161;28;20059;-73
2024/02/12 20:34:28;;;;;;;27.33;12.13;;;;;;;6.41;100.00;100776.63;10252643;28;20073;-73
2024/02/12 20:39:25;;;;;;;17.52;11.70;;;;;;;6.37;100.00;100786.44;10254036;28;20128;-71
2024/02/12 20:44:22;;;;;;;12.90;10.68;;;;;;;6.28;100.00;100793.56;10256962;28;20745;-73
2024/02/12 20:49:19;;;;;;;14.77;10.80;;;;;;;6.31;100.00;100795.72;10247865;28;20428;-76
2024/02/12 20:54:16;;;;;;;22.92;11.60;;;;;;;6.16;100.00;100809.47;10255560;28;20642;-72
2024/02/12 20:59:13;;;;;;;13.48;10.20;;;;;;;6.10;100.00;100817.66;10253062;28;20045;-72
2024/02/12 21:04:09;;;;;;;15.80;11.07;;;;;;;6.19;100.00;100822.44;10248174;28;20045;-72
2024/02/12 21:09:07;;;;;;;20.02;10.07;;;;;;;6.07;100.00;100831.78;10253507;28;20041;-73
2024/02/12 21:14:03;;;;;;;15.60;10.90;;;;;;;5.99;100.00;100845.16;10257607;28;20057;-71
2024/02/12 21:19:00;;;;;;;22.13;10.10;;;;;;;5.92;100.00;100850.88;10253744;28;20064;-70
2024/02/12 21:23:56;;;;;;;14.95;9.90;;;;;;;5.91;100.00;100860.09;10250322;28;20037;-72
2024/02/12 21:28:53;;;;;;;14.07;10.23;;;;;;;5.82;100.00;100859.09;10261153;28;20051;-72
2024/02/12 21:33:50;;;;;;;18.40;10.68;;;;;;;5.74;100.00;100884.13;10258670;28;20041;-71
2024/02/12 21:38:47;;;;;;;13.25;11.65;;;;;;;5.77;100.00;100886.25;10248334;28;20520;-71
2024/02/12 21:43:44;;;;;;;16.23;10.65;;;;;;;5.72;100.00;100902.56;10253153;28;20071;-70
2024/02/12 21:48:40;;;;;;;19.15;11.35;;;;;;;5.79;100.00;100908.50;10266190;28;20073;-71
2024/02/12 21:53:38;;;;;;;16.77;11.52;;;;;;;5.74;100.00;100914.78;10251276;28;20135;-70
2024/02/12 21:58:35;;;;;;;16.63;11.80;;;;;;;5.67;100.00;100925.13;10257646;28;20482;-74
2024/02/12 22:03:33;;;;;;;17.20;11.50;;;;;;;5.74;100.00;100931.03;10266277;28;20508;-74
2024/02/12 22:08:30;;;;;;;22.45;11.88;;;;;;;5.76;100.00;100939.72;10263133;28;20037;-72
2024/02/12 22:13:27;;;;;;;15.50;11.35;;;;;;;5.69;100.00;100950.88;10245603;28;20116;-71
2024/02/12 22:18:24;;;;;;;12.45;10.98;;;;;;;5.52;100.00;100955.03;10255676;28;20045;-72
2024/02/12 22:23:21;;;;;;;22.33;12.48;;;;;;;5.53;100.00;100960.19;10275574;28;20657;-72
2024/02/12 22:28:18;;;;;;;12.13;10.85;;;;;;;5.45;100.00;100960.75;10253953;28;20090;-71
2024/02/12 22:33:15;;;;;;;26.55;12.23;;;;;;;5.36;100.00;100967.81;10251295;28;20519;-72
2024/02/12 22:38:12;;;;;;;15.65;11.65;;;;;;;5.31;100.00;100965.94;10255053;28;20501;-73